This is the latest recevied weather packets stored in our database for station/object LZ1HCO-25. If no packets are shown the sender has not sent any weather packets the latest 10 day(s).
| Time | Temp. | Humidity | Pressure | Rain* | Wind** | Luminosity | Snow |
|---|---|---|---|---|---|---|---|
| 1777876329 | 15.56° C | 70% | 972 hPa | - | - | 0 W/m² | - |
| 1777876017 | 15.56° C | 67% | 972 hPa | - | - | 0 W/m² | - |
| 1777875706 | 15.56° C | 71% | 972 hPa | - | - | 0 W/m² | - |
| 1777875395 | 15.56° C | 66% | 972 hPa | - | - | 0 W/m² | - |
| 1777875083 | 14.44° C | 74% | 972 hPa | - | - | 0 W/m² | - |
| 1777874772 | 14.44° C | 72% | 972 hPa | - | - | 0 W/m² | - |
| 1777874460 | 13.89° C | 77% | 972 hPa | - | - | 0 W/m² | - |
| 1777874149 | 13.89° C | 74% | 972 hPa | - | - | 0 W/m² | - |
| 1777873838 | 13.33° C | 82% | 972 hPa | - | - | 0 W/m² | - |
| 1777873526 | 13.33° C | 77% | 972 hPa | - | - | 0 W/m² | - |
| 1777873215 | 12.78° C | 89% | 972 hPa | - | - | 0 W/m² | - |
| 1777872904 | 12.22° C | 93% | 972 hPa | - | - | 0 W/m² | - |
| 1777872592 | 11.67° C | 98% | 972 hPa | - | - | 0 W/m² | - |
| 1777872281 | 11.11° C | 99% | 972 hPa | - | - | 0 W/m² | - |
| 1777871970 | 10.56° C | 99% | 972 hPa | - | - | 0 W/m² | - |
| 1777871658 | 10° C | 99% | 972 hPa | - | - | 0 W/m² | - |
| 1777871347 | 10° C | 99% | 972 hPa | - | - | 0 W/m² | - |
| 1777871036 | 10° C | 99% | 972 hPa | - | - | 0 W/m² | - |
| 1777870724 | 9.44° C | 99% | 972 hPa | - | - | 0 W/m² | - |
| 1777870413 | 9.44° C | 99% | 972 hPa | - | - | 0 W/m² | - |
| 1777870101 | 8.89° C | 99% | 972 hPa | - | - | 0 W/m² | - |
| 1777869790 | 8.89° C | 99% | 972 hPa | - | - | 0 W/m² | - |
| 1777869479 | 8.33° C | 99% | 972 hPa | - | - | 0 W/m² | - |
| 1777869167 | 7.78° C | 99% | 972 hPa | - | - | 0 W/m² | - |
| 1777868856 | 7.78° C | 99% | 972 hPa | - | - | 0 W/m² | - |
* Rain since midnight (hover to see other rain measurements)
** Current wind speed in m/s (hover to see current wind gust speed)